Time;durP1;ratioP1;P1;durP2;ratioP2;P2;SDS_P1;SDS_P2;PMS_P1;PMS_P2;Temp;Humidity;BMP_temperature;BMP_pressure;BME280_temperature;BME280_humidity;BME280_pressure;Samples;Min_cycle;Max_cycle;Signal;HPM_P1;HPM_P2
2022/10/16 00:01:31;;;;;;;0.30;0.30;;;;;;;;;;5054228;28;20892;-69
2022/10/16 00:03:58;;;;;;;0.30;0.30;;;;;;;;;;5054917;28;20227;-69
2022/10/16 00:06:24;;;;;;;0.30;0.30;;;;;;;;;;5056727;28;20528;-70
2022/10/16 00:08:50;;;;;;;0.30;0.30;;;;;;;;;;5054805;28;20194;-71
2022/10/16 00:11:36;;;;;;;0.30;0.30;;;;;;;;;;5055919;28;20178;-69
2022/10/16 00:14:03;;;;;;;0.30;0.30;;;;;;;;;;5051953;28;20316;-70
2022/10/16 00:16:29;;;;;;;0.30;0.30;;;;;;;;;;5056304;28;20170;-70
2022/10/16 00:18:55;;;;;;;0.30;0.30;;;;;;;;;;5058034;28;20258;-70
2022/10/16 00:21:27;;;;;;;0.30;0.30;;;;;;;;;;5051201;28;20208;-71
2022/10/16 00:23:55;;;;;;;0.30;0.30;;;;;;;;;;5057515;28;20208;-72
2022/10/16 00:26:20;;;;;;;0.30;0.30;;;;;;;;;;5052937;28;20735;-72
2022/10/16 00:28:50;;;;;;;0.30;0.30;;;;;;;;;;5054673;28;20288;-71
2022/10/16 00:31:17;;;;;;;0.30;0.30;;;;;;;;;;5054329;28;20547;-72
2022/10/16 00:33:42;;;;;;;0.30;0.30;;;;;;;;;;5039101;28;20222;-71
2022/10/16 00:36:11;;;;;;;0.30;0.30;;;;;;;;;;5051767;28;20575;-72
2022/10/16 00:38:37;;;;;;;0.30;0.30;;;;;;;;;;5040086;28;20212;-71
2022/10/16 00:41:03;;;;;;;0.30;0.30;;;;;;;;;;5053368;28;20201;-71
2022/10/16 00:43:45;;;;;;;0.30;0.30;;;;;;;;;;5052031;28;20185;-72
2022/10/16 00:46:33;;;;;;;0.30;0.30;;;;;;;;;;5055273;28;20241;-71
2022/10/16 00:49:08;;;;;;;0.30;0.30;;;;;;;;;;5024009;28;20313;-71
2022/10/16 00:51:38;;;;;;;0.30;0.30;;;;;;;;;;5053969;28;20465;-71
2022/10/16 00:54:09;;;;;;;0.30;0.30;;;;;;;;;;5049575;28;20371;-70
2022/10/16 00:56:34;;;;;;;0.30;0.30;;;;;;;;;;5026673;28;20182;-70
2022/10/16 00:59:06;;;;;;;0.30;0.30;;;;;;;;;;5034445;28;20255;-70
2022/10/16 01:01:31;;;;;;;0.30;0.30;;;;;;;;;;5049837;28;20620;-70
2022/10/16 01:03:57;;;;;;;0.30;0.30;;;;;;;;;;5058795;28;20190;-69
2022/10/16 01:06:23;;;;;;;0.30;0.30;;;;;;;;;;5054221;28;20648;-69
2022/10/16 01:09:19;;;;;;;0.30;0.30;;;;;;;;;;5039224;28;20209;-69
2022/10/16 01:12:20;;;;;;;0.30;0.30;;;;;;;;;;5052698;28;20174;-68
2022/10/16 01:14:52;;;;;;;0.30;0.30;;;;;;;;;;5032225;28;20209;-71
2022/10/16 01:17:31;;;;;;;0.30;0.30;;;;;;;;;;5035595;28;20206;-71
2022/10/16 01:20:14;;;;;;;0.30;0.30;;;;;;;;;;5050618;28;20181;-71
2022/10/16 01:22:46;;;;;;;0.30;0.30;;;;;;;;;;5040393;28;20181;-72
2022/10/16 01:25:22;;;;;;;0.30;0.30;;;;;;;;;;5055441;28;20208;-72
2022/10/16 01:27:48;;;;;;;0.30;0.30;;;;;;;;;;5053834;28;20201;-71
2022/10/16 01:30:20;;;;;;;0.13;0.13;;;;;;;;;;5048110;28;20684;-71
2022/10/16 01:32:51;;;;;;;0.30;0.30;;;;;;;;;;5055595;28;20173;-72
2022/10/16 01:35:31;;;;;;;0.30;0.30;;;;;;;;;;5057317;28;20181;-71
2022/10/16 01:38:04;;;;;;;0.30;0.30;;;;;;;;;;5051376;28;20381;-70
2022/10/16 01:40:34;;;;;;;0.30;0.30;;;;;;;;;;5058882;28;20255;-69
2022/10/16 01:43:04;;;;;;;0.30;0.30;;;;;;;;;;5058405;28;20275;-70
2022/10/16 01:45:31;;;;;;;0.30;0.30;;;;;;;;;;5061960;28;20677;-70
2022/10/16 01:48:00;;;;;;;0.30;0.30;;;;;;;;;;5056252;28;20205;-70
2022/10/16 01:50:26;;;;;;;0.30;0.30;;;;;;;;;;5059970;28;20260;-72
2022/10/16 01:52:56;;;;;;;0.30;0.30;;;;;;;;;;5054664;28;20579;-72
2022/10/16 01:55:30;;;;;;;0.30;0.30;;;;;;;;;;5057191;28;20551;-71
2022/10/16 01:57:57;;;;;;;0.30;0.30;;;;;;;;;;5040915;28;20233;-70
2022/10/16 02:00:24;;;;;;;0.30;0.30;;;;;;;;;;5042659;28;20604;-70
2022/10/16 02:02:52;;;;;;;0.30;0.30;;;;;;;;;;5060906;28;20186;-70
2022/10/16 02:05:53;;;;;;;0.30;0.30;;;;;;;;;;5036662;28;20174;-69
2022/10/16 02:08:19;;;;;;;0.30;0.30;;;;;;;;;;5022901;28;20493;-70
2022/10/16 02:10:44;;;;;;;0.30;0.30;;;;;;;;;;5054285;28;20182;-70
2022/10/16 02:13:23;;;;;;;0.30;0.30;;;;;;;;;;5056859;28;20560;-69
2022/10/16 02:15:49;;;;;;;0.30;0.30;;;;;;;;;;5052049;28;20178;-70
2022/10/16 02:18:14;;;;;;;0.30;0.30;;;;;;;;;;5045571;28;20201;-70
2022/10/16 02:21:09;;;;;;;0.30;0.30;;;;;;;;;;5057079;28;20186;-72
2022/10/16 02:24:00;;;;;;;0.30;0.30;;;;;;;;;;5054044;28;20194;-73
2022/10/16 02:26:33;;;;;;;0.30;0.30;;;;;;;;;;5048579;28;20209;-70
2022/10/16 02:29:06;;;;;;;0.30;0.30;;;;;;;;;;5056120;28;20205;-69
2022/10/16 02:31:36;;;;;;;0.30;0.30;;;;;;;;;;5058867;28;20198;-69
2022/10/16 02:34:04;;;;;;;0.30;0.30;;;;;;;;;;5041906;28;20347;-69
2022/10/16 02:36:31;;;;;;;0.30;0.30;;;;;;;;;;5057059;28;20518;-69
2022/10/16 02:38:58;;;;;;;0.30;0.30;;;;;;;;;;5057848;28;20299;-69
2022/10/16 02:41:24;;;;;;;0.30;0.30;;;;;;;;;;5058451;28;20177;-70
2022/10/16 02:43:50;;;;;;;0.30;0.30;;;;;;;;;;5052159;28;20247;-69
2022/10/16 02:46:17;;;;;;;0.30;0.30;;;;;;;;;;5041863;28;20209;-69
2022/10/16 02:48:42;;;;;;;0.30;0.30;;;;;;;;;;5043237;28;20299;-69
2022/10/16 02:51:08;;;;;;;0.30;0.30;;;;;;;;;;5056481;28;20185;-69
2022/10/16 02:53:33;;;;;;;0.30;0.30;;;;;;;;;;5059006;28;20181;-70
2022/10/16 02:55:58;;;;;;;0.30;0.30;;;;;;;;;;5048763;28;20173;-71
2022/10/16 02:58:24;;;;;;;0.30;0.30;;;;;;;;;;5057411;28;20212;-71
2022/10/16 03:00:49;;;;;;;0.30;0.30;;;;;;;;;;5063079;28;20586;-70
2022/10/16 03:03:14;;;;;;;0.30;0.30;;;;;;;;;;5036439;28;20193;-70
2022/10/16 03:05:40;;;;;;;0.30;0.30;;;;;;;;;;5057061;28;20205;-69
2022/10/16 03:08:05;;;;;;;0.30;0.30;;;;;;;;;;5060843;28;20405;-69
2022/10/16 03:10:31;;;;;;;0.30;0.30;;;;;;;;;;5032668;28;20248;-70
2022/10/16 03:12:56;;;;;;;0.30;0.30;;;;;;;;;;5059236;28;20192;-70
2022/10/16 03:15:21;;;;;;;0.30;0.30;;;;;;;;;;5055343;28;20190;-69
2022/10/16 03:17:47;;;;;;;0.20;0.20;;;;;;;;;;5059432;28;20205;-69
2022/10/16 03:20:12;;;;;;;0.30;0.30;;;;;;;;;;5036337;28;20189;-69
2022/10/16 03:22:38;;;;;;;0.30;0.30;;;;;;;;;;5058321;28;20744;-69
2022/10/16 03:25:04;;;;;;;0.30;0.30;;;;;;;;;;5030195;28;20182;-70
2022/10/16 03:27:29;;;;;;;0.27;0.27;;;;;;;;;;5058297;28;20292;-69
2022/10/16 03:29:54;;;;;;;0.30;0.30;;;;;;;;;;5056615;28;20646;-69
2022/10/16 03:32:20;;;;;;;0.30;0.30;;;;;;;;;;5054775;28;20192;-70
2022/10/16 03:34:45;;;;;;;0.30;0.30;;;;;;;;;;5040742;28;20213;-70
2022/10/16 03:37:11;;;;;;;0.20;0.20;;;;;;;;;;5058651;28;20669;-71
2022/10/16 03:39:36;;;;;;;0.30;0.30;;;;;;;;;;5060933;28;20261;-70
2022/10/16 03:42:02;;;;;;;0.23;0.23;;;;;;;;;;5054610;28;20236;-69
2022/10/16 03:44:27;;;;;;;0.30;0.30;;;;;;;;;;5045827;28;20191;-69
2022/10/16 03:46:53;;;;;;;0.20;0.20;;;;;;;;;;5051380;28;20607;-69
2022/10/16 03:49:18;;;;;;;0.30;0.30;;;;;;;;;;5051098;28;20213;-68
2022/10/16 03:51:43;;;;;;;0.30;0.30;;;;;;;;;;5052973;28;20596;-69
2022/10/16 03:54:09;;;;;;;0.30;0.30;;;;;;;;;;5058533;28;20186;-69
2022/10/16 03:56:35;;;;;;;0.30;0.30;;;;;;;;;;5055813;28;20631;-68
2022/10/16 03:59:00;;;;;;;0.30;0.30;;;;;;;;;;5030434;28;20197;-68
2022/10/16 04:01:25;;;;;;;3.83;3.63;;;;;;;;;;5050702;28;20178;-69
2022/10/16 04:03:51;;;;;;;0.30;0.30;;;;;;;;;;5037668;28;20593;-69
2022/10/16 04:06:16;;;;;;;0.30;0.30;;;;;;;;;;5053491;28;20205;-68
2022/10/16 04:08:45;;;;;;;0.30;0.30;;;;;;;;;;5041512;28;20207;-69
2022/10/16 04:11:10;;;;;;;0.30;0.30;;;;;;;;;;5053511;28;20186;-68
2022/10/16 04:13:36;;;;;;;0.30;0.30;;;;;;;;;;5053732;28;20499;-68
2022/10/16 04:16:02;;;;;;;0.30;0.30;;;;;;;;;;5055041;28;20357;-69
2022/10/16 04:18:27;;;;;;;0.30;0.30;;;;;;;;;;5052576;28;20220;-69
2022/10/16 04:20:53;;;;;;;0.27;0.27;;;;;;;;;;5056010;28;20268;-69
2022/10/16 04:23:19;;;;;;;0.30;0.30;;;;;;;;;;5056708;28;20560;-69
2022/10/16 04:25:44;;;;;;;0.30;0.30;;;;;;;;;;5053761;28;20212;-69
2022/10/16 04:28:09;;;;;;;0.30;0.30;;;;;;;;;;5058764;28;20212;-69
2022/10/16 04:30:38;;;;;;;0.30;0.30;;;;;;;;;;5057102;28;20268;-69
2022/10/16 04:33:03;;;;;;;0.30;0.30;;;;;;;;;;5058842;28;20658;-69
2022/10/16 04:35:28;;;;;;;0.30;0.30;;;;;;;;;;5053692;28;20178;-69
2022/10/16 04:37:54;;;;;;;0.27;0.27;;;;;;;;;;5049889;28;20617;-69
2022/10/16 04:40:19;;;;;;;0.30;0.30;;;;;;;;;;5036721;28;20189;-70
2022/10/16 04:42:44;;;;;;;0.30;0.30;;;;;;;;;;5058632;28;20181;-71
2022/10/16 04:45:10;;;;;;;0.30;0.30;;;;;;;;;;5033561;28;20202;-71
2022/10/16 04:47:35;;;;;;;0.30;0.30;;;;;;;;;;5043336;28;20262;-68
2022/10/16 04:50:02;;;;;;;0.30;0.30;;;;;;;;;;5031255;28;20228;-68
2022/10/16 04:52:28;;;;;;;0.30;0.30;;;;;;;;;;5057947;28;20184;-72
2022/10/16 04:54:54;;;;;;;0.30;0.30;;;;;;;;;;5036901;28;20549;-72
2022/10/16 04:57:19;;;;;;;0.30;0.30;;;;;;;;;;5054329;28;20201;-72
2022/10/16 04:59:44;;;;;;;0.30;0.30;;;;;;;;;;5034609;28;20186;-72
2022/10/16 05:02:10;;;;;;;0.30;0.30;;;;;;;;;;5059265;28;20212;-72
2022/10/16 05:04:35;;;;;;;0.30;0.30;;;;;;;;;;5054911;28;20183;-69
2022/10/16 05:07:00;;;;;;;0.30;0.30;;;;;;;;;;5040461;28;20750;-69
2022/10/16 05:09:26;;;;;;;0.30;0.30;;;;;;;;;;5058682;28;20177;-69
2022/10/16 05:11:52;;;;;;;0.30;0.30;;;;;;;;;;5038831;28;20184;-69
2022/10/16 05:14:17;;;;;;;0.30;0.30;;;;;;;;;;5053912;28;20197;-69
2022/10/16 05:16:43;;;;;;;0.30;0.30;;;;;;;;;;5052365;28;20181;-68
2022/10/16 05:19:08;;;;;;;0.30;0.30;;;;;;;;;;5037845;28;20208;-69
2022/10/16 05:21:33;;;;;;;0.30;0.30;;;;;;;;;;5044838;28;20186;-69
2022/10/16 05:23:59;;;;;;;0.30;0.30;;;;;;;;;;5058794;28;20186;-69
2022/10/16 05:26:24;;;;;;;0.30;0.30;;;;;;;;;;5039094;28;20217;-69
2022/10/16 05:28:50;;;;;;;0.30;0.30;;;;;;;;;;5037397;28;20197;-69
2022/10/16 05:31:15;;;;;;;0.30;0.30;;;;;;;;;;5058461;28;20186;-69
2022/10/16 05:33:41;;;;;;;0.30;0.30;;;;;;;;;;5056453;28;20596;-68
2022/10/16 05:36:09;;;;;;;0.30;0.30;;;;;;;;;;5057710;28;20181;-68
2022/10/16 05:38:35;;;;;;;0.30;0.30;;;;;;;;;;5053783;28;20194;-69
2022/10/16 05:41:01;;;;;;;0.30;0.30;;;;;;;;;;5050154;28;20332;-69
2022/10/16 05:43:27;;;;;;;0.30;0.30;;;;;;;;;;5059570;28;20264;-69
2022/10/16 05:46:19;;;;;;;0.30;0.30;;;;;;;;;;5032247;28;20197;-69
2022/10/16 05:48:45;;;;;;;0.30;0.30;;;;;;;;;;5051697;28;20255;-69
2022/10/16 05:51:13;;;;;;;0.30;0.30;;;;;;;;;;5028979;28;20226;-69
2022/10/16 05:53:39;;;;;;;0.30;0.30;;;;;;;;;;5035808;28;20179;-69
2022/10/16 05:56:06;;;;;;;0.30;0.30;;;;;;;;;;5049096;28;20697;-69
2022/10/16 05:58:35;;;;;;;0.30;0.30;;;;;;;;;;5053670;28;20500;-70
2022/10/16 06:01:03;;;;;;;0.30;0.30;;;;;;;;;;5043253;28;20188;-70
2022/10/16 06:03:29;;;;;;;0.30;0.30;;;;;;;;;;5053416;28;20254;-69
2022/10/16 06:05:54;;;;;;;0.30;0.30;;;;;;;;;;5034600;28;20198;-70
2022/10/16 06:08:22;;;;;;;0.30;0.30;;;;;;;;;;5054577;28;20210;-70
2022/10/16 06:10:47;;;;;;;0.30;0.30;;;;;;;;;;5042673;28;20192;-70
2022/10/16 06:13:13;;;;;;;0.30;0.30;;;;;;;;;;5058366;28;20654;-70
2022/10/16 06:15:41;;;;;;;0.30;0.30;;;;;;;;;;5063381;28;20189;-70
2022/10/16 06:18:10;;;;;;;0.23;0.23;;;;;;;;;;5055879;28;20205;-69
2022/10/16 06:20:37;;;;;;;0.30;0.30;;;;;;;;;;5044348;28;20630;-68
2022/10/16 06:23:03;;;;;;;0.30;0.30;;;;;;;;;;5044425;28;20186;-69
2022/10/16 06:25:30;;;;;;;0.27;0.27;;;;;;;;;;5045722;28;20277;-70
2022/10/16 06:27:55;;;;;;;0.30;0.30;;;;;;;;;;5055049;28;20220;-70
2022/10/16 06:30:21;;;;;;;0.30;0.30;;;;;;;;;;5059173;28;20636;-69
2022/10/16 06:32:46;;;;;;;0.30;0.30;;;;;;;;;;5059337;28;20202;-69
2022/10/16 06:35:11;;;;;;;0.20;0.20;;;;;;;;;;5058086;28;20190;-69
2022/10/16 06:37:37;;;;;;;0.20;0.20;;;;;;;;;;5042593;28;20247;-69
2022/10/16 06:40:04;;;;;;;0.30;0.30;;;;;;;;;;5061473;28;20240;-70
2022/10/16 06:42:29;;;;;;;0.30;0.30;;;;;;;;;;5055877;28;20270;-69
2022/10/16 06:44:55;;;;;;;0.30;0.30;;;;;;;;;;5050939;28;20238;-70
2022/10/16 06:47:20;;;;;;;0.30;0.30;;;;;;;;;;5045173;28;20238;-67
2022/10/16 06:49:45;;;;;;;0.30;0.30;;;;;;;;;;5051756;28;20178;-68
2022/10/16 06:52:11;;;;;;;0.30;0.30;;;;;;;;;;5052242;28;20916;-68
2022/10/16 06:54:36;;;;;;;0.30;0.30;;;;;;;;;;5056748;28;20184;-68
2022/10/16 06:57:01;;;;;;;0.30;0.30;;;;;;;;;;5045237;28;20260;-68
2022/10/16 06:59:27;;;;;;;0.30;0.30;;;;;;;;;;5040929;28;20185;-68
2022/10/16 07:01:52;;;;;;;0.30;0.30;;;;;;;;;;5060859;28;20190;-67
2022/10/16 07:04:17;;;;;;;0.20;0.20;;;;;;;;;;5057260;28;20230;-67
2022/10/16 07:06:43;;;;;;;0.30;0.30;;;;;;;;;;5033567;28;20201;-67
2022/10/16 07:09:10;;;;;;;0.30;0.30;;;;;;;;;;5056302;28;20549;-68
2022/10/16 07:11:37;;;;;;;0.30;0.30;;;;;;;;;;5055259;28;20178;-68
2022/10/16 07:14:03;;;;;;;0.30;0.30;;;;;;;;;;5062046;28;20710;-68
2022/10/16 07:16:30;;;;;;;0.30;0.30;;;;;;;;;;5043953;28;20184;-68
2022/10/16 07:19:01;;;;;;;0.30;0.30;;;;;;;;;;5041433;28;20284;-67
2022/10/16 07:21:35;;;;;;;0.30;0.30;;;;;;;;;;5038677;28;20463;-67
2022/10/16 07:24:01;;;;;;;0.30;0.30;;;;;;;;;;5058789;28;20190;-68
2022/10/16 07:26:32;;;;;;;0.30;0.30;;;;;;;;;;5059042;28;20201;-68
2022/10/16 07:28:58;;;;;;;0.30;0.30;;;;;;;;;;5035637;28;20198;-68
2022/10/16 07:31:23;;;;;;;0.30;0.30;;;;;;;;;;5042805;28;20696;-72
2022/10/16 07:33:49;;;;;;;0.30;0.30;;;;;;;;;;5057973;28;20177;-69
2022/10/16 07:36:17;;;;;;;0.30;0.30;;;;;;;;;;5056371;28;20186;-73
2022/10/16 07:38:43;;;;;;;0.30;0.30;;;;;;;;;;5033403;28;20263;-73
2022/10/16 07:41:11;;;;;;;0.30;0.30;;;;;;;;;;5059438;28;20185;-73
2022/10/16 07:43:37;;;;;;;0.50;0.50;;;;;;;;;;5052389;28;20635;-74
2022/10/16 07:46:02;;;;;;;0.30;0.30;;;;;;;;;;5057358;28;20220;-73
2022/10/16 07:48:30;;;;;;;0.30;0.30;;;;;;;;;;5058644;28;20529;-73
2022/10/16 07:51:03;;;;;;;0.30;0.30;;;;;;;;;;5049531;28;20711;-73
2022/10/16 07:53:29;;;;;;;0.30;0.30;;;;;;;;;;5035964;28;20290;-74
2022/10/16 07:55:59;;;;;;;0.30;0.30;;;;;;;;;;5054397;28;20169;-74
2022/10/16 07:58:25;;;;;;;0.30;0.30;;;;;;;;;;5051191;28;20200;-74
2022/10/16 08:00:51;;;;;;;0.30;0.30;;;;;;;;;;5033533;28;20267;-73
2022/10/16 08:03:16;;;;;;;0.30;0.30;;;;;;;;;;5040395;28;20647;-73
2022/10/16 08:05:41;;;;;;;0.35;0.35;;;;;;;;;;5062195;28;20651;-73
2022/10/16 08:08:12;;;;;;;0.30;0.30;;;;;;;;;;5037583;28;20197;-73
2022/10/16 08:10:38;;;;;;;0.30;0.30;;;;;;;;;;5038845;28;20182;-73
2022/10/16 08:13:03;;;;;;;0.30;0.30;;;;;;;;;;5060861;28;20543;-73
2022/10/16 08:15:28;;;;;;;0.30;0.30;;;;;;;;;;5052582;28;20185;-74
2022/10/16 08:17:58;;;;;;;0.40;0.40;;;;;;;;;;5042008;28;20279;-73
2022/10/16 08:20:25;;;;;;;0.40;0.40;;;;;;;;;;5050507;28;20174;-73
2022/10/16 08:22:50;;;;;;;0.30;0.30;;;;;;;;;;5036973;28;20190;-74
2022/10/16 08:25:16;;;;;;;0.40;0.40;;;;;;;;;;5055959;28;20730;-73
2022/10/16 08:27:41;;;;;;;0.30;0.30;;;;;;;;;;5060279;28;20212;-73
2022/10/16 08:30:08;;;;;;;0.30;0.30;;;;;;;;;;5053320;28;20235;-74
2022/10/16 08:32:33;;;;;;;0.30;0.30;;;;;;;;;;5054484;28;20246;-73
2022/10/16 08:34:58;;;;;;;0.22;0.22;;;;;;;;;;5044656;28;20548;-73
2022/10/16 08:37:24;;;;;;;0.30;0.30;;;;;;;;;;5057934;28;20190;-74
2022/10/16 08:39:50;;;;;;;0.30;0.30;;;;;;;;;;5036686;28;20178;-74
2022/10/16 08:42:23;;;;;;;0.30;0.30;;;;;;;;;;5054050;28;20189;-74
2022/10/16 08:45:26;;;;;;;0.30;0.30;;;;;;;;;;5056621;28;20301;-73
2022/10/16 08:48:03;;;;;;;0.38;0.38;;;;;;;;;;5039243;28;20276;-73
2022/10/16 08:50:32;;;;;;;0.30;0.30;;;;;;;;;;5059867;28;20181;-74
2022/10/16 08:52:58;;;;;;;0.30;0.30;;;;;;;;;;5032957;28;20259;-73
2022/10/16 08:55:46;;;;;;;0.30;0.30;;;;;;;;;;5054883;28;20679;-70
2022/10/16 08:58:25;;;;;;;0.30;0.30;;;;;;;;;;5057461;28;20453;-71
2022/10/16 09:00:56;;;;;;;0.30;0.30;;;;;;;;;;5053776;28;20213;-71
2022/10/16 09:03:32;;;;;;;0.30;0.30;;;;;;;;;;5036571;28;20272;-70
2022/10/16 09:06:17;;;;;;;0.30;0.30;;;;;;;;;;5053992;28;20260;-70
2022/10/16 09:08:51;;;;;;;0.30;0.30;;;;;;;;;;5053508;28;20629;-70
2022/10/16 09:11:53;;;;;;;0.30;0.30;;;;;;;;;;5038749;28;20185;-70
2022/10/16 09:14:46;;;;;;;0.30;0.30;;;;;;;;;;4988199;28;20277;-70
2022/10/16 09:17:46;;;;;;;0.30;0.30;;;;;;;;;;5040832;28;20282;-70
2022/10/16 09:20:50;;;;;;;0.30;0.30;;;;;;;;;;5037528;28;20581;-71
2022/10/16 09:23:36;;;;;;;0.30;0.30;;;;;;;;;;5002536;28;20773;-72
2022/10/16 09:26:03;;;;;;;0.30;0.30;;;;;;;;;;4993062;28;21160;-71
2022/10/16 09:28:28;;;;;;;0.30;0.30;;;;;;;;;;5005925;28;20208;-72
2022/10/16 09:30:54;;;;;;;0.40;0.40;;;;;;;;;;4996282;28;20201;-71
2022/10/16 09:33:25;;;;;;;0.30;0.30;;;;;;;;;;5015301;28;20804;-71
2022/10/16 09:35:54;;;;;;;0.30;0.30;;;;;;;;;;5005936;28;20553;-71
2022/10/16 09:38:32;;;;;;;0.30;0.30;;;;;;;;;;5028343;28;20658;-71
2022/10/16 09:41:00;;;;;;;0.30;0.30;;;;;;;;;;4993890;28;20212;-71
2022/10/16 09:43:33;;;;;;;0.30;0.30;;;;;;;;;;4997980;28;20751;-72
2022/10/16 09:45:59;;;;;;;0.30;0.30;;;;;;;;;;4994786;28;21009;-71
2022/10/16 09:48:31;;;;;;;0.30;0.30;;;;;;;;;;5003357;28;20217;-70
2022/10/16 09:51:03;;;;;;;0.30;0.30;;;;;;;;;;5006233;28;20213;-70
2022/10/16 09:53:46;;;;;;;0.40;0.40;;;;;;;;;;5004309;28;20196;-71
2022/10/16 09:56:22;;;;;;;0.30;0.30;;;;;;;;;;4993585;28;20312;-70
2022/10/16 09:58:56;;;;;;;0.30;0.30;;;;;;;;;;5004759;28;21175;-71
2022/10/16 10:01:28;;;;;;;0.30;0.30;;;;;;;;;;5005242;28;21990;-71
2022/10/16 10:04:00;;;;;;;0.30;0.30;;;;;;;;;;4986680;28;20791;-70
2022/10/16 10:06:40;;;;;;;0.30;0.30;;;;;;;;;;4985136;28;20206;-71
2022/10/16 10:09:24;;;;;;;0.38;0.38;;;;;;;;;;4989377;28;20610;-71
2022/10/16 10:11:57;;;;;;;0.30;0.30;;;;;;;;;;5005088;28;21065;-71
2022/10/16 10:14:45;;;;;;;0.30;0.30;;;;;;;;;;4987858;28;21225;-71
2022/10/16 10:17:22;;;;;;;0.30;0.30;;;;;;;;;;5003358;28;20216;-73
2022/10/16 10:19:48;;;;;;;0.30;0.30;;;;;;;;;;4990309;28;20274;-71
2022/10/16 10:22:27;;;;;;;0.30;0.30;;;;;;;;;;5003010;28;20900;-71
2022/10/16 10:24:59;;;;;;;0.30;0.30;;;;;;;;;;5006415;28;21256;-71
2022/10/16 10:27:36;;;;;;;0.40;0.40;;;;;;;;;;4992485;28;20226;-72
2022/10/16 10:30:23;;;;;;;0.30;0.30;;;;;;;;;;4970768;28;20185;-72
2022/10/16 10:33:11;;;;;;;0.30;0.30;;;;;;;;;;5060073;28;20184;-71
2022/10/16 10:36:01;;;;;;;0.30;0.30;;;;;;;;;;5058444;28;20177;-71
2022/10/16 10:38:52;;;;;;;0.30;0.30;;;;;;;;;;5044643;28;20623;-71
2022/10/16 10:41:30;;;;;;;0.30;0.30;;;;;;;;;;5049842;28;20190;-71
2022/10/16 10:44:16;;;;;;;0.30;0.30;;;;;;;;;;5049692;28;20587;-71
2022/10/16 10:46:51;;;;;;;0.30;0.30;;;;;;;;;;5063477;28;20274;-72
2022/10/16 10:49:51;;;;;;;0.30;0.30;;;;;;;;;;5060090;28;20178;-70
2022/10/16 10:52:39;;;;;;;0.40;0.40;;;;;;;;;;5029018;28;20188;-70
2022/10/16 10:55:20;;;;;;;0.30;0.30;;;;;;;;;;4996427;28;20265;-71
2022/10/16 10:58:27;;;;;;;0.30;0.30;;;;;;;;;;5057783;28;20201;-70
2022/10/16 11:01:01;;;;;;;0.30;0.30;;;;;;;;;;5044034;28;20185;-72
2022/10/16 11:03:48;;;;;;;0.30;0.30;;;;;;;;;;5038971;28;20266;-72
2022/10/16 11:06:24;;;;;;;0.35;0.35;;;;;;;;;;5058800;28;20209;-71
2022/10/16 11:09:08;;;;;;;0.30;0.30;;;;;;;;;;5055187;28;20198;-69
2022/10/16 11:11:42;;;;;;;0.30;0.30;;;;;;;;;;5055266;28;20185;-69
2022/10/16 11:14:50;;;;;;;0.30;0.30;;;;;;;;;;5038765;28;20224;-69
2022/10/16 11:17:25;;;;;;;0.40;0.40;;;;;;;;;;5017635;28;20285;-68
2022/10/16 11:19:50;;;;;;;0.30;0.30;;;;;;;;;;5057337;28;20174;-68
2022/10/16 11:22:37;;;;;;;0.30;0.30;;;;;;;;;;5042536;28;20235;-69
2022/10/16 11:25:11;;;;;;;0.30;0.30;;;;;;;;;;5055737;28;20725;-69
2022/10/16 11:27:42;;;;;;;0.35;0.35;;;;;;;;;;5040400;28;20702;-70
2022/10/16 11:30:21;;;;;;;0.30;0.30;;;;;;;;;;5053357;28;20608;-69
2022/10/16 11:33:08;;;;;;;0.32;0.32;;;;;;;;;;5050822;28;20798;-69
2022/10/16 11:35:59;;;;;;;0.30;0.30;;;;;;;;;;5060740;28;20178;-69
2022/10/16 11:38:40;;;;;;;0.40;0.40;;;;;;;;;;5038074;28;20202;-68
2022/10/16 11:41:35;;;;;;;0.30;0.30;;;;;;;;;;5055582;28;20167;-68
2022/10/16 11:44:26;;;;;;;0.30;0.30;;;;;;;;;;5002383;28;20219;-69
2022/10/16 11:47:04;;;;;;;0.40;0.40;;;;;;;;;;5033434;28;20566;-69
2022/10/16 11:49:32;;;;;;;0.40;0.40;;;;;;;;;;5038945;28;20716;-68
2022/10/16 11:52:28;;;;;;;0.35;0.35;;;;;;;;;;5037335;28;20184;-69
2022/10/16 11:55:17;;;;;;;0.40;0.40;;;;;;;;;;5053441;28;20545;-69
2022/10/16 11:57:50;;;;;;;0.30;0.30;;;;;;;;;;5060124;28;20280;-69
2022/10/16 12:00:26;;;;;;;0.35;0.35;;;;;;;;;;5055704;28;20657;-69
2022/10/16 12:03:03;;;;;;;0.32;0.32;;;;;;;;;;5063599;28;20201;-69
2022/10/16 12:05:55;;;;;;;0.40;0.40;;;;;;;;;;5042312;28;20193;-70
2022/10/16 12:08:21;;;;;;;0.40;0.40;;;;;;;;;;5033373;28;20237;-69
2022/10/16 12:10:47;;;;;;;0.40;0.40;;;;;;;;;;5050763;28;20387;-69
2022/10/16 12:13:34;;;;;;;0.40;0.40;;;;;;;;;;5053404;28;20254;-70
2022/10/16 12:16:11;;;;;;;0.30;0.30;;;;;;;;;;5057673;28;20182;-69
2022/10/16 12:18:38;;;;;;;0.30;0.30;;;;;;;;;;5043199;28;20295;-69
2022/10/16 12:21:07;;;;;;;0.30;0.30;;;;;;;;;;5042137;28;20608;-68
2022/10/16 12:24:04;;;;;;;0.30;0.30;;;;;;;;;;5047608;28;20185;-68
2022/10/16 12:26:38;;;;;;;0.30;0.30;;;;;;;;;;5056148;28;20558;-70
2022/10/16 12:29:23;;;;;;;0.30;0.30;;;;;;;;;;5052383;28;20223;-68
2022/10/16 12:31:49;;;;;;;0.32;0.32;;;;;;;;;;5059441;28;20288;-69
2022/10/16 12:34:41;;;;;;;0.40;0.40;;;;;;;;;;5060252;28;20185;-69
2022/10/16 12:37:45;;;;;;;0.40;0.40;;;;;;;;;;5042488;28;20276;-69
2022/10/16 12:40:13;;;;;;;0.40;0.40;;;;;;;;;;4964323;28;20239;-69
2022/10/16 12:42:39;;;;;;;0.30;0.30;;;;;;;;;;4974132;28;20641;-69
2022/10/16 12:45:37;;;;;;;0.30;0.30;;;;;;;;;;5014357;28;20293;-69
2022/10/16 12:48:19;;;;;;;0.32;0.32;;;;;;;;;;5023414;28;20217;-68
2022/10/16 12:50:44;;;;;;;0.30;0.30;;;;;;;;;;5038055;28;20201;-68
2022/10/16 12:53:22;;;;;;;0.30;0.30;;;;;;;;;;5054072;28;20673;-69
2022/10/16 12:56:16;;;;;;;0.30;0.30;;;;;;;;;;5038825;28;20200;-69
2022/10/16 12:59:19;;;;;;;0.40;0.40;;;;;;;;;;5058057;28;20209;-69
2022/10/16 13:02:22;;;;;;;0.30;0.30;;;;;;;;;;5048557;28;20553;-68
2022/10/16 13:04:51;;;;;;;0.30;0.30;;;;;;;;;;4977113;28;20199;-68
2022/10/16 13:07:58;;;;;;;0.35;0.35;;;;;;;;;;5054554;28;20219;-68
2022/10/16 13:10:31;;;;;;;0.30;0.30;;;;;;;;;;5060195;28;20201;-69
2022/10/16 13:13:08;;;;;;;0.40;0.40;;;;;;;;;;5054876;28;20678;-68
2022/10/16 13:16:07;;;;;;;0.30;0.30;;;;;;;;;;5051883;28;20189;-69
2022/10/16 13:18:53;;;;;;;0.30;0.30;;;;;;;;;;5056742;28;20205;-69
2022/10/16 13:21:30;;;;;;;0.40;0.40;;;;;;;;;;5062296;28;20231;-69
2022/10/16 13:24:25;;;;;;;0.30;0.30;;;;;;;;;;5058313;28;20265;-68
2022/10/16 13:27:07;;;;;;;0.30;0.30;;;;;;;;;;5054436;28;20248;-68
2022/10/16 13:29:33;;;;;;;0.30;0.30;;;;;;;;;;5063486;28;20231;-70
2022/10/16 13:32:01;;;;;;;0.30;0.30;;;;;;;;;;5066807;28;20208;-68
2022/10/16 13:34:27;;;;;;;0.30;0.30;;;;;;;;;;5058613;28;20217;-68
2022/10/16 13:36:53;;;;;;;0.30;0.30;;;;;;;;;;5060351;28;20236;-72
2022/10/16 13:39:28;;;;;;;0.30;0.30;;;;;;;;;;5063443;28;20181;-70
2022/10/16 13:42:06;;;;;;;0.32;0.32;;;;;;;;;;5059524;28;20181;-69
2022/10/16 13:44:40;;;;;;;0.30;0.30;;;;;;;;;;5048262;28;20186;-69
2022/10/16 13:47:14;;;;;;;0.30;0.30;;;;;;;;;;5061921;28;20204;-69
2022/10/16 13:49:39;;;;;;;0.30;0.30;;;;;;;;;;5064338;28;20647;-69
2022/10/16 13:52:05;;;;;;;0.40;0.40;;;;;;;;;;5006042;28;20663;-69
2022/10/16 13:54:30;;;;;;;0.30;0.30;;;;;;;;;;4977304;28;20218;-70
2022/10/16 13:56:56;;;;;;;0.40;0.40;;;;;;;;;;4975955;28;20186;-69
2022/10/16 13:59:28;;;;;;;0.30;0.30;;;;;;;;;;4988539;28;20238;-70
2022/10/16 14:01:57;;;;;;;0.30;0.30;;;;;;;;;;4993812;28;20696;-69
2022/10/16 14:04:24;;;;;;;0.40;0.40;;;;;;;;;;4992671;28;20189;-69
2022/10/16 14:06:51;;;;;;;0.30;0.30;;;;;;;;;;4993576;28;20510;-69
2022/10/16 14:09:23;;;;;;;0.30;0.30;;;;;;;;;;4993098;28;20905;-69
2022/10/16 14:11:51;;;;;;;0.30;0.30;;;;;;;;;;4993339;28;20245;-69
2022/10/16 14:14:18;;;;;;;0.40;0.40;;;;;;;;;;5003159;28;20190;-69
2022/10/16 14:16:44;;;;;;;0.40;0.40;;;;;;;;;;5012654;28;20196;-69
2022/10/16 14:19:21;;;;;;;0.30;0.30;;;;;;;;;;4974510;28;20217;-69
2022/10/16 14:21:47;;;;;;;0.30;0.30;;;;;;;;;;4982025;28;20200;-69
2022/10/16 14:24:21;;;;;;;0.30;0.30;;;;;;;;;;4985784;28;21079;-69
2022/10/16 14:26:48;;;;;;;0.40;0.40;;;;;;;;;;4987828;28;20208;-69
2022/10/16 14:29:18;;;;;;;3.33;0.75;;;;;;;;;;4981808;28;20223;-69
2022/10/16 14:31:58;;;;;;;0.40;0.40;;;;;;;;;;4960894;28;20271;-69
2022/10/16 14:34:32;;;;;;;0.30;0.30;;;;;;;;;;4961714;28;20426;-69
2022/10/16 14:37:19;;;;;;;0.30;0.30;;;;;;;;;;4961734;28;20595;-69
2022/10/16 14:39:49;;;;;;;0.40;0.40;;;;;;;;;;4972450;28;20623;-69
2022/10/16 14:42:18;;;;;;;0.30;0.30;;;;;;;;;;5040886;28;20227;-69
2022/10/16 14:44:45;;;;;;;0.35;0.35;;;;;;;;;;5054317;28;20235;-69
2022/10/16 14:47:16;;;;;;;0.30;0.30;;;;;;;;;;5061781;28;20213;-69
2022/10/16 14:49:42;;;;;;;0.30;0.30;;;;;;;;;;5060942;28;20173;-69
2022/10/16 14:52:12;;;;;;;0.30;0.30;;;;;;;;;;5061546;28;20182;-69
2022/10/16 14:54:37;;;;;;;0.32;0.32;;;;;;;;;;5058568;28;20174;-69
2022/10/16 14:57:03;;;;;;;0.40;0.40;;;;;;;;;;5040715;28;20178;-69
2022/10/16 14:59:32;;;;;;;0.30;0.30;;;;;;;;;;5060422;28;20177;-69
2022/10/16 15:01:57;;;;;;;0.30;0.30;;;;;;;;;;5052846;28;20681;-69
2022/10/16 15:04:22;;;;;;;0.40;0.40;;;;;;;;;;5045350;28;20185;-69
2022/10/16 15:06:48;;;;;;;0.40;0.40;;;;;;;;;;5053185;28;20272;-69
2022/10/16 15:09:13;;;;;;;0.40;0.40;;;;;;;;;;5041707;28;20231;-69
2022/10/16 15:11:39;;;;;;;0.30;0.30;;;;;;;;;;5055595;28;20178;-69